createdAt,value
2018-12-01T00:00:34.991Z,80.67
2018-12-01T00:03:04.257Z,80.57
2018-12-01T00:05:33.095Z,80.95
2018-12-01T00:08:02.509Z,80.45
2018-12-01T00:10:31.803Z,79.90
2018-12-01T00:13:00.631Z,80.08
2018-12-01T00:15:30.792Z,80.26
2018-12-01T00:17:59.907Z,80.17
2018-12-01T00:20:30.208Z,79.85
2018-12-01T00:22:59.412Z,79.99
2018-12-01T00:25:28.705Z,79.75
2018-12-01T00:27:57.961Z,79.56
2018-12-01T00:30:27.316Z,79.19
2018-12-01T00:32:56.941Z,79.03
2018-12-01T00:35:26.306Z,78.73
2018-12-01T00:37:55.224Z,79.42
2018-12-01T00:40:24.442Z,79.53
2018-12-01T00:42:53.445Z,79.42
2018-12-01T00:45:23.472Z,79.19
2018-12-01T00:47:53.471Z,79.00
2018-12-01T00:50:23.506Z,79.10
2018-12-01T00:52:53.315Z,78.91
2018-12-01T00:55:22.768Z,79.38
2018-12-01T00:57:52.023Z,79.70
2018-12-01T01:00:25.388Z,79.55
2018-12-01T01:02:57.017Z,79.79
2018-12-01T01:05:27.044Z,79.71
2018-12-01T01:07:56.874Z,78.96
2018-12-01T01:10:31.012Z,79.27
2018-12-01T01:13:00.267Z,79.65
2018-12-01T01:15:29.504Z,79.57
2018-12-01T01:17:58.758Z,79.80
2018-12-01T01:20:28.108Z,79.45
2018-12-01T01:22:57.455Z,79.66
2018-12-01T01:25:26.287Z,79.68
2018-12-01T01:27:55.627Z,79.45
2018-12-01T01:30:25.315Z,79.54
2018-12-01T01:33:04.323Z,79.41
2018-12-01T01:35:33.331Z,79.68
2018-12-01T01:38:02.572Z,79.50
2018-12-01T01:40:31.476Z,79.44
2018-12-01T01:43:00.654Z,79.04
2018-12-01T01:45:29.813Z,78.54
2018-12-01T01:47:58.942Z,78.04
2018-12-01T01:50:28.339Z,78.41
2018-12-01T01:52:57.588Z,78.79
2018-12-01T01:55:26.962Z,78.75
2018-12-01T01:57:56.187Z,78.10
2018-12-01T02:00:25.435Z,78.34
2018-12-01T02:02:54.257Z,78.33
2018-12-01T02:05:24.848Z,78.44
2018-12-01T02:07:54.095Z,78.45
2018-12-01T02:32:24.531Z,79.34
2018-12-01T02:34:53.749Z,79.28
2018-12-01T02:37:23.000Z,79.11
2018-12-01T02:39:51.907Z,79.35
2018-12-01T02:42:21.063Z,79.27
2018-12-01T02:45:01.900Z,79.31
2018-12-01T02:47:31.304Z,79.83
2018-12-01T02:50:00.499Z,79.74
2018-12-01T02:52:29.671Z,80.12
2018-12-01T02:54:58.680Z,79.96
2018-12-01T02:57:27.846Z,79.05
2018-12-01T02:59:56.873Z,78.54
2018-12-01T03:02:26.067Z,78.53
2018-12-01T03:04:55.421Z,78.71
2018-12-01T03:07:24.622Z,78.77
2018-12-01T03:09:53.961Z,79.45
2018-12-01T03:12:23.175Z,79.04
2018-12-01T03:14:52.456Z,79.33
2018-12-01T03:17:21.402Z,79.30
2018-12-01T03:19:50.647Z,79.39
2018-12-01T03:22:19.831Z,79.34
2018-12-01T03:24:48.967Z,79.33
2018-12-01T03:27:18.468Z,79.14
2018-12-01T03:29:47.708Z,79.51
2018-12-01T03:32:16.764Z,79.67
2018-12-01T03:34:46.136Z,79.66
2018-12-01T03:37:15.261Z,79.74
2018-12-01T03:39:44.212Z,79.89
2018-12-01T03:42:13.626Z,79.80
2018-12-01T03:44:42.730Z,78.81
2018-12-01T03:47:12.007Z,78.36
2018-12-01T03:49:41.435Z,78.73
2018-12-01T03:52:10.896Z,79.00
2018-12-01T03:54:39.805Z,78.74
2018-12-01T03:57:08.991Z,79.47
2018-12-01T03:59:38.327Z,79.55
2018-12-01T04:02:07.615Z,79.79
2018-12-01T04:04:36.629Z,79.98
2018-12-01T04:07:05.963Z,79.72
2018-12-01T04:09:34.920Z,79.58
2018-12-01T04:12:04.155Z,79.08
2018-12-01T04:14:33.078Z,77.62
2018-12-01T04:17:02.474Z,78.09
2018-12-01T04:19:31.774Z,77.73
2018-12-01T04:22:01.199Z,77.68
2018-12-01T04:24:30.264Z,78.64
2018-12-01T04:26:59.403Z,78.95
2018-12-01T04:29:28.692Z,79.31
2018-12-01T04:31:58.051Z,79.06
2018-12-01T04:34:27.171Z,78.80
2018-12-01T04:36:56.378Z,78.29
2018-12-01T04:39:25.399Z,78.46
2018-12-01T04:41:54.489Z,78.72
2018-12-01T04:44:23.819Z,79.00
2018-12-01T04:46:52.978Z,79.20
2018-12-01T04:49:22.364Z,79.47
2018-12-01T04:51:51.227Z,79.73
2018-12-01T04:54:20.399Z,79.44
2018-12-01T04:56:49.687Z,79.61
2018-12-01T04:59:18.866Z,79.99
2018-12-01T05:01:48.147Z,80.28
2018-12-01T05:04:17.343Z,80.14
2018-12-01T05:06:46.487Z,79.83
2018-12-01T05:09:15.835Z,79.97
2018-12-01T05:11:45.196Z,80.40
2018-12-01T05:14:14.147Z,80.48
2018-12-01T05:16:43.018Z,80.42
2018-12-01T05:19:12.104Z,81.02
2018-12-01T05:21:41.375Z,81.59
2018-12-01T05:24:10.729Z,81.64
2018-12-01T05:26:39.507Z,81.75
2018-12-01T05:29:08.691Z,81.60
2018-12-01T05:31:37.680Z,81.22
2018-12-01T05:34:07.079Z,80.63
2018-12-01T05:36:36.485Z,79.53
2018-12-01T05:39:08.616Z,79.89
2018-12-01T05:41:37.807Z,79.44
2018-12-01T05:44:06.799Z,79.68
2018-12-01T05:46:36.846Z,79.20
2018-12-01T05:49:05.552Z,79.18
2018-12-01T05:51:34.662Z,79.99
2018-12-01T05:54:03.591Z,80.58
2018-12-01T05:56:32.814Z,79.83
2018-12-01T05:59:01.983Z,78.74
2018-12-01T06:01:31.353Z,79.03
2018-12-01T06:04:00.531Z,79.49
2018-12-01T06:06:29.779Z,79.52
2018-12-01T06:08:58.924Z,79.38
2018-12-01T06:11:28.212Z,79.05
2018-12-01T06:13:57.080Z,79.63
2018-12-01T06:16:26.404Z,79.67
2018-12-01T06:18:55.366Z,79.68
2018-12-01T06:21:24.513Z,79.37
2018-12-01T06:23:53.698Z,79.16
2018-12-01T06:26:22.659Z,79.17
2018-12-01T06:28:51.719Z,78.93
2018-12-01T06:31:20.995Z,78.54
2018-12-01T06:33:50.178Z,77.55
2018-12-01T06:36:19.465Z,76.93
2018-12-01T06:38:48.339Z,77.45
2018-12-01T06:41:17.510Z,76.88
2018-12-01T06:43:46.338Z,77.33
2018-12-01T06:46:15.635Z,77.38
2018-12-01T06:48:44.618Z,77.73
2018-12-01T06:51:13.499Z,77.56
2018-12-01T06:53:42.670Z,77.01
2018-12-01T06:56:11.480Z,76.58
2018-12-01T06:58:40.828Z,77.34
2018-12-01T07:01:09.821Z,78.10
2018-12-01T07:03:38.816Z,78.24
2018-12-01T07:06:07.840Z,78.03
2018-12-01T07:08:37.048Z,77.45
2018-12-01T07:11:06.197Z,77.99
2018-12-01T07:13:35.312Z,77.79
2018-12-01T07:16:04.494Z,76.78
2018-12-01T07:18:44.637Z,77.02
2018-12-01T07:21:13.523Z,76.89
2018-12-01T07:23:42.867Z,76.48
2018-12-01T07:26:11.767Z,76.27
2018-12-01T07:28:41.071Z,76.88
2018-12-01T07:31:10.072Z,77.61
2018-12-01T07:33:39.235Z,76.84
2018-12-01T07:36:08.461Z,76.81
2018-12-01T07:38:37.599Z,76.27
2018-12-01T07:41:07.189Z,76.95
2018-12-01T07:43:36.496Z,77.40
2018-12-01T07:46:05.687Z,77.17
2018-12-01T07:48:34.707Z,75.89
2018-12-01T07:51:03.950Z,74.94
2018-12-01T07:53:33.135Z,75.15
2018-12-01T07:56:02.423Z,75.13
2018-12-01T07:58:31.493Z,74.47
2018-12-01T08:01:00.763Z,73.57
2018-12-01T08:03:29.786Z,73.09
2018-12-01T08:05:58.947Z,72.15
2018-12-01T08:08:28.078Z,71.73
2018-12-01T08:10:57.347Z,71.75
2018-12-01T08:13:26.490Z,70.88
2018-12-01T08:15:55.738Z,69.93
2018-12-01T08:18:24.903Z,69.32
2018-12-01T08:20:53.960Z,68.35
2018-12-01T08:23:22.947Z,66.95
2018-12-01T08:25:52.235Z,66.88
2018-12-01T08:28:23.444Z,66.56
2018-12-01T08:30:52.507Z,66.18
2018-12-01T08:33:21.949Z,65.07
2018-12-01T08:35:51.083Z,61.87
2018-12-01T08:38:20.008Z,61.59
2018-12-01T08:40:49.295Z,59.17
2018-12-01T08:43:18.302Z,58.44
2018-12-01T08:45:47.561Z,57.70
2018-12-01T08:48:16.595Z,59.63
2018-12-01T08:50:46.345Z,61.08
2018-12-01T08:53:14.990Z,60.76
2018-12-01T08:55:44.255Z,60.97
2018-12-01T08:58:13.465Z,60.14
2018-12-01T09:00:43.455Z,60.02
2018-12-01T09:03:17.473Z,60.13
2018-12-01T09:05:46.685Z,60.67
2018-12-01T09:08:16.064Z,61.67
2018-12-01T09:10:45.215Z,60.66
2018-12-01T09:13:14.559Z,61.31
2018-12-01T09:15:43.908Z,62.05
2018-12-01T09:18:12.935Z,61.28
2018-12-01T09:20:42.183Z,61.54
2018-12-01T09:23:11.574Z,61.67
2018-12-01T09:25:40.599Z,61.39
2018-12-01T09:28:10.400Z,61.28
2018-12-01T09:30:41.206Z,61.07
2018-12-01T09:33:10.082Z,61.45
2018-12-01T09:35:39.311Z,61.13
2018-12-01T09:38:08.356Z,60.44
2018-12-01T09:40:37.381Z,60.27
2018-12-01T09:43:06.791Z,58.89
2018-12-01T09:45:36.021Z,59.77
2018-12-01T09:48:05.008Z,59.69
2018-12-01T09:50:34.168Z,57.46
2018-12-01T09:53:03.004Z,57.59
2018-12-01T09:55:32.391Z,56.42
2018-12-01T09:58:01.759Z,56.20
2018-12-01T10:00:32.003Z,55.97
2018-12-01T10:03:02.255Z,54.27
2018-12-01T10:05:31.742Z,53.21
2018-12-01T10:08:01.020Z,51.92
2018-12-01T10:10:30.353Z,53.39
2018-12-01T10:12:59.730Z,52.86
2018-12-01T10:15:30.224Z,51.06
2018-12-01T10:17:59.653Z,49.01
2018-12-01T10:20:29.824Z,45.05
2018-12-01T10:22:59.428Z,45.77
2018-12-01T10:25:28.342Z,45.00
2018-12-01T10:27:57.467Z,46.50
2018-12-01T10:30:26.810Z,47.87
2018-12-01T10:32:56.135Z,46.53
2018-12-01T10:35:26.075Z,44.86
2018-12-01T10:38:07.745Z,44.98
2018-12-01T10:40:36.803Z,42.36
2018-12-01T10:43:06.504Z,40.31
2018-12-01T10:45:35.539Z,41.17
2018-12-01T10:48:05.070Z,41.83
2018-12-01T10:50:34.304Z,41.77
2018-12-01T10:53:03.299Z,40.84
2018-12-01T10:55:34.148Z,43.69
2018-12-01T10:58:05.237Z,45.46
2018-12-01T11:00:39.442Z,45.19
2018-12-01T11:03:13.953Z,45.10
2018-12-01T11:05:42.988Z,43.93
2018-12-01T11:08:13.714Z,41.60
2018-12-01T11:10:43.067Z,38.62
2018-12-01T11:13:12.032Z,37.07
2018-12-01T11:15:41.308Z,36.63
2018-12-01T11:18:10.391Z,35.81
2018-12-01T11:20:39.616Z,36.56
2018-12-01T11:23:08.824Z,37.23
2018-12-01T11:25:37.969Z,36.85
2018-12-01T11:28:07.343Z,35.21
2018-12-01T11:30:37.830Z,33.53
2018-12-01T11:33:07.139Z,31.77
2018-12-01T11:35:36.335Z,29.76
2018-12-01T11:38:05.606Z,28.28
2018-12-01T11:40:34.967Z,30.26
2018-12-01T11:43:04.116Z,28.98
2018-12-01T11:45:33.671Z,33.11
2018-12-01T11:48:02.826Z,34.59
2018-12-01T11:50:32.052Z,34.58
2018-12-01T11:53:01.316Z,33.15
2018-12-01T11:55:30.307Z,33.30
2018-12-01T11:57:59.571Z,31.84
2018-12-01T12:00:28.884Z,33.62
2018-12-01T12:02:58.028Z,34.67
2018-12-01T12:05:27.002Z,37.50
2018-12-01T12:08:06.796Z,38.09
2018-12-01T12:10:35.925Z,38.43
2018-12-01T12:13:05.017Z,38.63
2018-12-01T12:15:34.222Z,38.84
2018-12-01T12:18:03.999Z,38.92
2018-12-01T12:20:33.199Z,37.14
2018-12-01T12:23:02.126Z,37.19
2018-12-01T12:25:31.304Z,38.06
2018-12-01T12:28:00.553Z,38.30
2018-12-01T12:30:29.678Z,37.56
2018-12-01T12:32:58.861Z,37.19
2018-12-01T12:35:28.159Z,39.41
2018-12-01T12:37:57.095Z,39.19
2018-12-01T12:40:27.138Z,38.90
2018-12-01T12:43:00.372Z,39.95
2018-12-01T12:45:29.615Z,40.43
2018-12-01T12:47:59.064Z,40.05
2018-12-01T12:50:28.307Z,39.00
2018-12-01T12:52:57.817Z,40.10
2018-12-01T12:55:28.383Z,40.10
2018-12-01T12:57:57.321Z,40.58
2018-12-01T13:00:27.111Z,40.15
2018-12-01T13:03:00.092Z,39.04
2018-12-01T13:05:33.459Z,37.75
2018-12-01T13:08:02.681Z,35.89
2018-12-01T13:10:32.219Z,37.96
2018-12-01T13:13:01.300Z,37.96
2018-12-01T13:15:30.347Z,37.48
2018-12-01T13:17:59.646Z,36.25
2018-12-01T13:20:28.796Z,37.19
2018-12-01T13:23:04.619Z,39.61
2018-12-01T13:25:33.454Z,41.04
2018-12-01T13:28:09.752Z,42.83
2018-12-01T13:30:46.113Z,44.60
2018-12-01T13:33:15.133Z,46.13
2018-12-01T13:35:44.356Z,47.41
2018-12-01T13:38:13.289Z,49.40
2018-12-01T13:40:42.539Z,50.46
2018-12-01T13:43:11.800Z,50.89
2018-12-01T13:45:41.071Z,52.13
2018-12-01T13:48:10.407Z,53.59
2018-12-01T13:50:39.639Z,55.39
2018-12-01T13:53:11.727Z,55.44
2018-12-01T13:55:40.894Z,56.09
2018-12-01T13:58:15.147Z,55.87
2018-12-01T14:00:44.432Z,58.33
2018-12-01T14:03:13.767Z,58.82
2018-12-01T14:05:43.260Z,60.52
2018-12-01T14:08:12.142Z,60.34
2018-12-01T14:10:43.584Z,60.04
2018-12-01T14:13:13.610Z,60.20
2018-12-01T14:15:42.851Z,60.67
2018-12-01T14:18:12.396Z,61.32
2018-12-01T14:20:41.632Z,61.83
2018-12-01T14:23:10.729Z,62.62
2018-12-01T14:25:40.036Z,63.38
2018-12-01T14:28:10.455Z,63.68
2018-12-01T14:30:39.755Z,64.71
2018-12-01T14:33:09.860Z,65.56
2018-12-01T14:35:39.301Z,66.24
2018-12-01T14:38:13.511Z,65.54
2018-12-01T14:40:43.776Z,66.29
2018-12-01T14:43:12.995Z,66.61
2018-12-01T14:45:42.942Z,66.90
2018-12-01T14:48:12.163Z,67.14
2018-12-01T14:50:41.559Z,67.95
2018-12-01T14:53:12.057Z,68.84
2018-12-01T14:55:40.899Z,69.69
2018-12-01T14:58:10.258Z,69.22
2018-12-01T15:00:39.567Z,69.67
2018-12-01T15:03:09.585Z,70.40
2018-12-01T15:05:39.272Z,70.97
2018-12-01T15:08:08.798Z,71.42
2018-12-01T15:10:38.123Z,71.17
2018-12-01T15:13:07.141Z,71.23
2018-12-01T15:15:36.171Z,70.66
2018-12-01T15:18:05.361Z,70.43
2018-12-01T15:20:35.072Z,70.76
2018-12-01T15:23:04.243Z,71.07
2018-12-01T15:25:33.407Z,71.47
2018-12-01T15:28:02.666Z,71.93
2018-12-01T15:30:31.780Z,72.31
2018-12-01T15:33:06.099Z,72.34
2018-12-01T15:35:35.358Z,72.82
2018-12-01T15:38:04.612Z,73.59
2018-12-01T15:40:33.865Z,73.17
2018-12-01T15:43:03.568Z,72.94
2018-12-01T15:45:32.936Z,73.21
2018-12-01T15:48:02.130Z,73.21
2018-12-01T15:50:31.402Z,73.72
2018-12-01T15:53:01.343Z,74.28
2018-12-01T15:55:30.690Z,74.17
2018-12-01T15:57:59.935Z,74.23
2018-12-01T16:00:29.579Z,75.09
2018-12-01T16:02:58.744Z,75.35
2018-12-01T16:05:27.632Z,75.71
2018-12-01T16:07:57.827Z,75.80
2018-12-01T16:10:27.317Z,75.49
2018-12-01T16:13:00.292Z,75.73
2018-12-01T16:15:34.583Z,76.01
2018-12-01T16:18:04.143Z,76.11
2018-12-01T16:20:33.450Z,75.65
2018-12-01T16:23:02.724Z,75.55
2018-12-01T16:25:32.087Z,76.11
2018-12-01T16:28:01.328Z,76.36
2018-12-01T16:30:34.584Z,76.15
2018-12-01T16:33:05.814Z,76.38
2018-12-01T16:35:34.992Z,75.96
2018-12-01T16:38:04.554Z,76.33
2018-12-01T16:40:36.414Z,76.20
2018-12-01T16:43:08.015Z,76.07
2018-12-01T16:45:37.307Z,76.49
2018-12-01T16:48:06.644Z,76.10
2018-12-01T16:50:35.919Z,76.23
2018-12-01T16:53:05.456Z,76.81
2018-12-01T16:55:34.320Z,77.03
2018-12-01T16:58:03.383Z,77.38
2018-12-01T17:00:32.667Z,77.55
2018-12-01T17:03:01.918Z,78.02
2018-12-01T17:05:33.711Z,77.96
2018-12-01T17:08:02.799Z,77.70
2018-12-01T17:10:31.726Z,78.00
2018-12-01T17:13:01.036Z,78.45
2018-12-01T17:15:31.107Z,77.85
2018-12-01T17:18:00.500Z,77.81
2018-12-01T17:20:29.619Z,77.37
2018-12-01T17:22:59.426Z,77.26
2018-12-01T17:25:28.652Z,77.71
2018-12-01T17:27:58.867Z,78.05
2018-12-01T17:30:29.863Z,78.01
2018-12-01T17:33:00.020Z,78.72
2018-12-01T17:35:31.218Z,78.29
2018-12-01T17:38:04.354Z,78.20
2018-12-01T17:40:46.711Z,78.31
2018-12-01T17:43:18.173Z,78.72
2018-12-01T17:45:47.493Z,78.44
2018-12-01T17:48:16.361Z,78.49
2018-12-01T17:50:45.515Z,78.67
2018-12-01T17:53:15.691Z,78.52
2018-12-01T17:55:44.793Z,78.47
2018-12-01T17:58:13.967Z,79.09
2018-12-01T18:00:42.959Z,78.71
2018-12-01T18:03:12.123Z,78.43
2018-12-01T18:05:43.098Z,78.15
2018-12-01T18:08:13.675Z,78.72
2018-12-01T18:10:43.156Z,79.01
2018-12-01T18:13:12.494Z,79.01
2018-12-01T18:15:41.832Z,79.64
2018-12-01T18:18:10.841Z,79.75
2018-12-01T18:20:40.231Z,79.22
2018-12-01T18:23:10.987Z,79.24
2018-12-01T18:25:47.492Z,79.94
2018-12-01T18:28:19.600Z,79.04
2018-12-01T18:30:48.893Z,79.11
2018-12-01T18:33:24.000Z,79.81
2018-12-01T18:35:53.239Z,80.07
2018-12-01T18:38:22.490Z,80.14
2018-12-01T18:40:51.908Z,80.20
2018-12-01T18:43:21.174Z,79.19
2018-12-01T18:45:52.081Z,79.09
2018-12-01T18:48:21.267Z,79.19
2018-12-01T18:50:50.204Z,79.69
2018-12-01T18:53:19.569Z,80.13
2018-12-01T18:55:52.535Z,79.96
2018-12-01T18:58:22.126Z,79.70
2018-12-01T19:00:53.318Z,79.15
2018-12-01T19:03:23.964Z,79.44
2018-12-01T19:05:53.030Z,79.70
2018-12-01T19:08:21.936Z,80.24
2018-12-01T19:10:51.462Z,80.23
2018-12-01T19:13:20.810Z,79.69
2018-12-01T19:15:50.052Z,79.50
2018-12-01T19:18:19.307Z,79.70
2018-12-01T19:20:49.187Z,80.24
2018-12-01T19:23:18.915Z,80.32
2018-12-01T19:25:49.356Z,79.98
2018-12-01T19:28:18.495Z,79.29
2018-12-01T19:30:47.405Z,79.08
2018-12-01T19:33:18.723Z,79.90
2018-12-01T19:35:48.758Z,79.88
2018-12-01T19:38:26.456Z,80.13
2018-12-01T19:40:56.206Z,80.19
2018-12-01T19:43:25.495Z,81.01
2018-12-01T19:45:54.750Z,80.71
2018-12-01T19:48:24.103Z,80.79
2018-12-01T19:50:53.128Z,80.63
2018-12-01T19:53:22.387Z,80.07
2018-12-01T19:55:53.253Z,80.55
2018-12-01T19:58:27.783Z,80.60
2018-12-01T20:00:57.636Z,80.66
2018-12-01T20:03:29.427Z,80.12
2018-12-01T20:05:58.727Z,80.41
2018-12-01T20:08:28.186Z,81.03
2018-12-01T20:11:00.076Z,80.57
2018-12-01T20:13:36.663Z,80.86
2018-12-01T20:16:17.186Z,80.52
2018-12-01T20:18:47.238Z,80.91
2018-12-01T20:21:16.204Z,81.33
2018-12-01T20:23:45.727Z,81.25
2018-12-01T20:26:16.129Z,81.00
2018-12-01T20:28:45.688Z,80.73
2018-12-01T20:31:15.210Z,80.88
2018-12-01T20:33:44.577Z,81.30
2018-12-01T20:36:23.546Z,81.44
2018-12-01T20:39:13.090Z,81.86
2018-12-01T20:41:42.468Z,81.64
2018-12-01T20:44:12.067Z,81.43
2018-12-01T20:46:41.712Z,81.35
2018-12-01T20:49:10.950Z,81.03
2018-12-01T20:51:40.105Z,81.47
2018-12-01T20:54:19.210Z,81.80
2018-12-01T20:56:48.967Z,82.26
2018-12-01T20:59:18.272Z,81.73
2018-12-01T21:01:47.568Z,81.77
2018-12-01T21:04:16.913Z,81.95
2018-12-01T21:06:45.847Z,81.84
2018-12-01T21:09:14.996Z,81.74
2018-12-01T21:11:44.119Z,81.85
2018-12-01T21:14:13.365Z,81.82
2018-12-01T21:16:42.466Z,82.11
2018-12-01T21:19:11.800Z,82.07
2018-12-01T21:21:40.979Z,81.75
2018-12-01T21:24:10.087Z,81.60
2018-12-01T21:26:39.289Z,81.41
2018-12-01T21:29:09.205Z,81.53
2018-12-01T21:31:38.553Z,81.66
2018-12-01T21:34:08.048Z,82.25
2018-12-01T21:36:37.251Z,82.07
2018-12-01T21:39:08.448Z,81.60
2018-12-01T21:41:37.827Z,81.99
2018-12-01T21:44:06.961Z,81.88
2018-12-01T21:46:36.290Z,81.11
2018-12-01T21:49:06.511Z,80.36
2018-12-01T21:51:35.483Z,80.22
2018-12-01T21:54:04.528Z,79.85
2018-12-01T21:56:33.660Z,79.72
2018-12-01T21:59:03.752Z,79.67
2018-12-01T22:01:32.838Z,79.92
2018-12-01T22:04:02.148Z,80.05
2018-12-01T22:06:31.356Z,80.44
2018-12-01T22:09:00.398Z,80.32
2018-12-01T22:11:29.748Z,80.31
2018-12-01T22:13:58.715Z,80.23
2018-12-01T22:16:27.946Z,80.18
2018-12-01T22:18:57.267Z,80.48
2018-12-01T22:21:26.491Z,80.38
2018-12-01T22:23:55.885Z,80.68
2018-12-01T22:26:25.223Z,80.83
2018-12-01T22:28:54.335Z,80.53
2018-12-01T22:31:23.624Z,80.27
2018-12-01T22:33:52.722Z,80.30
2018-12-01T22:36:21.920Z,80.44
2018-12-01T22:38:51.095Z,80.36
2018-12-01T22:41:20.256Z,80.71
2018-12-01T22:43:49.633Z,81.03
2018-12-01T22:46:18.903Z,81.26
2018-12-01T22:48:48.162Z,81.03
2018-12-01T22:51:17.394Z,81.05
2018-12-01T22:53:46.627Z,81.08
2018-12-01T22:56:15.812Z,81.30
2018-12-01T22:58:44.895Z,81.44
2018-12-01T23:01:14.005Z,81.59
2018-12-01T23:03:43.634Z,81.65
2018-12-01T23:06:12.858Z,81.99
2018-12-01T23:08:42.202Z,82.18
2018-12-01T23:11:11.657Z,82.13
2018-12-01T23:13:40.747Z,81.99
2018-12-01T23:16:10.039Z,81.37
2018-12-01T23:18:39.384Z,81.15
2018-12-01T23:21:08.509Z,81.27
2018-12-01T23:23:37.757Z,81.52
2018-12-01T23:26:06.991Z,81.11
2018-12-01T23:28:36.203Z,81.28
2018-12-01T23:31:05.592Z,81.53
2018-12-01T23:33:34.358Z,81.23
2018-12-01T23:36:03.526Z,81.48
2018-12-01T23:38:32.651Z,81.02
2018-12-01T23:41:01.863Z,81.03
2018-12-01T23:43:30.872Z,81.19
2018-12-01T23:45:59.955Z,81.33
2018-12-01T23:48:29.066Z,81.45
2018-12-01T23:50:58.184Z,81.42
2018-12-01T23:53:27.323Z,81.78
2018-12-01T23:55:56.651Z,81.78
2018-12-01T23:58:25.839Z,81.86
